createdAt,value
2022-09-23T00:02:07.560Z,49.64
2022-09-23T00:04:42.267Z,49.64
2022-09-23T00:07:14.993Z,49.31
2022-09-23T00:09:48.123Z,49.44
2022-09-23T00:12:20.932Z,49.67
2022-09-23T00:14:54.162Z,49.62
2022-09-23T00:17:27.268Z,50.11
2022-09-23T00:20:01.684Z,49.81
2022-09-23T00:22:34.596Z,50.07
2022-09-23T00:25:09.877Z,49.72
2022-09-23T00:27:42.709Z,50.24
2022-09-23T00:30:15.654Z,49.91
2022-09-23T00:32:48.452Z,50.23
2022-09-23T00:35:22.535Z,50.07
2022-09-23T00:37:56.525Z,49.71
2022-09-23T00:40:29.296Z,49.95
2022-09-23T00:43:02.033Z,50.09
2022-09-23T00:45:35.090Z,50.23
2022-09-23T00:48:15.689Z,49.77
2022-09-23T00:50:55.236Z,49.94
2022-09-23T00:53:29.796Z,50.23
2022-09-23T00:56:07.280Z,50.16
2022-09-23T00:58:42.106Z,50.28
2022-09-23T01:01:15.341Z,50.19
2022-09-23T01:03:48.398Z,50.13
2022-09-23T01:06:22.364Z,50.25
2022-09-23T01:08:55.567Z,50.56
2022-09-23T01:11:39.830Z,50.10
2022-09-23T01:14:29.029Z,50.13
2022-09-23T01:17:09.967Z,50.04
2022-09-23T01:20:09.442Z,50.43
2022-09-23T01:22:50.059Z,50.67
2022-09-23T01:25:44.969Z,50.46
2022-09-23T01:28:40.241Z,50.09
2022-09-23T01:31:19.473Z,49.94
2022-09-23T01:33:58.011Z,50.22
2022-09-23T01:36:38.487Z,50.18
2022-09-23T01:39:15.979Z,50.23
2022-09-23T01:42:02.162Z,50.37
2022-09-23T01:44:43.025Z,50.24
2022-09-23T01:47:22.766Z,50.10
2022-09-23T01:50:00.790Z,50.31
2022-09-23T01:52:39.855Z,50.61
2022-09-23T01:55:17.611Z,49.97
2022-09-23T01:57:57.800Z,50.42
2022-09-23T02:00:34.929Z,50.12
2022-09-23T02:03:16.453Z,50.33
2022-09-23T02:05:53.823Z,50.17
2022-09-23T02:08:30.879Z,50.37
2022-09-23T02:11:08.083Z,49.90
2022-09-23T02:13:46.222Z,50.43
2022-09-23T02:16:27.611Z,50.27
2022-09-23T02:19:07.278Z,50.28
2022-09-23T02:21:44.897Z,50.28
2022-09-23T02:24:21.092Z,49.95
2022-09-23T02:26:57.090Z,50.04
2022-09-23T02:29:36.346Z,50.09
2022-09-23T02:32:17.994Z,50.06
2022-09-23T02:35:01.050Z,50.06
2022-09-23T02:37:43.607Z,50.04
2022-09-23T02:40:25.290Z,49.66
2022-09-23T02:43:06.225Z,49.94
2022-09-23T02:45:39.436Z,49.98
2022-09-23T02:48:16.964Z,49.95
2022-09-23T02:50:51.048Z,49.78
2022-09-23T02:53:24.772Z,50.01
2022-09-23T02:55:58.565Z,50.00
2022-09-23T02:58:31.606Z,50.06
2022-09-23T03:01:26.834Z,50.01
2022-09-23T03:04:14.009Z,50.05
2022-09-23T03:07:00.397Z,50.34
2022-09-23T03:09:35.969Z,50.09
2022-09-23T03:12:16.800Z,50.42
2022-09-23T03:14:55.709Z,49.71
2022-09-23T03:17:34.733Z,49.86
2022-09-23T03:20:13.668Z,50.01
2022-09-23T03:22:54.865Z,50.08
2022-09-23T03:25:31.547Z,50.14
2022-09-23T03:28:05.747Z,50.02
2022-09-23T03:30:40.208Z,50.23
2022-09-23T03:33:16.672Z,50.08
2022-09-23T03:36:16.281Z,50.03
2022-09-23T03:38:52.977Z,49.91
2022-09-23T03:41:33.527Z,50.18
2022-09-23T03:44:11.549Z,49.96
2022-09-23T03:46:49.922Z,49.76
2022-09-23T03:49:28.837Z,49.86
2022-09-23T03:52:03.754Z,49.95
2022-09-23T03:54:38.899Z,49.92
2022-09-23T03:57:28.141Z,49.81
2022-09-23T04:00:13.346Z,49.76
2022-09-23T04:02:49.853Z,49.81
2022-09-23T04:05:25.167Z,49.85
2022-09-23T04:07:58.617Z,49.75
2022-09-23T04:11:18.483Z,49.77
2022-09-23T04:14:23.929Z,49.50
2022-09-23T04:17:11.400Z,49.71
2022-09-23T04:19:47.792Z,49.99
2022-09-23T04:22:26.693Z,49.67
2022-09-23T04:25:19.987Z,49.79
2022-09-23T04:27:57.033Z,49.98
2022-09-23T04:30:53.528Z,50.13
2022-09-23T04:33:29.464Z,49.83
2022-09-23T04:36:05.550Z,49.59
2022-09-23T04:38:38.376Z,49.76
2022-09-23T04:41:11.786Z,49.86
2022-09-23T04:43:47.347Z,49.88
2022-09-23T04:46:22.024Z,49.47
2022-09-23T04:48:55.262Z,49.88
2022-09-23T04:51:31.667Z,49.74
2022-09-23T04:54:06.205Z,50.00
2022-09-23T04:56:40.015Z,50.30
2022-09-23T04:59:15.595Z,49.99
2022-09-23T05:01:51.587Z,50.02
2022-09-23T05:04:31.043Z,50.00
2022-09-23T05:07:20.495Z,49.86
2022-09-23T05:10:28.677Z,49.92
2022-09-23T05:13:40.201Z,50.05
2022-09-23T05:16:25.035Z,49.98
2022-09-23T05:18:58.653Z,50.27
2022-09-23T05:21:32.305Z,49.98
2022-09-23T05:24:06.058Z,49.98
2022-09-23T05:26:39.630Z,50.21
2022-09-23T05:29:12.552Z,50.15
2022-09-23T05:31:47.222Z,50.00
2022-09-23T05:34:20.343Z,49.97
2022-09-23T05:36:53.317Z,49.99
2022-09-23T05:39:27.375Z,49.91
2022-09-23T05:42:25.559Z,49.98
2022-09-23T05:45:28.199Z,50.21
2022-09-23T05:48:43.170Z,50.08
2022-09-23T05:51:22.551Z,50.19
2022-09-23T05:53:59.658Z,49.77
2022-09-23T05:56:34.115Z,49.92
2022-09-23T05:59:07.375Z,49.99
2022-09-23T06:01:40.809Z,49.86
2022-09-23T06:04:15.580Z,49.73
2022-09-23T06:06:48.532Z,50.04
2022-09-23T06:09:21.216Z,50.05
2022-09-23T06:11:54.062Z,50.03
2022-09-23T06:14:27.597Z,49.87
2022-09-23T06:17:03.099Z,50.29
2022-09-23T06:19:37.065Z,50.11
2022-09-23T06:22:10.831Z,49.94
2022-09-23T06:24:43.908Z,50.17
2022-09-23T06:27:16.590Z,50.18
2022-09-23T06:29:51.880Z,50.00
2022-09-23T06:32:24.529Z,49.91
2022-09-23T06:34:58.582Z,49.85
2022-09-23T06:37:33.315Z,49.81
2022-09-23T06:40:06.951Z,49.62
2022-09-23T06:42:39.664Z,49.94
2022-09-23T06:45:15.276Z,49.52
2022-09-23T06:47:51.248Z,49.63
2022-09-23T06:50:26.933Z,49.85
2022-09-23T06:52:59.737Z,49.49
2022-09-23T06:55:33.287Z,49.30
2022-09-23T06:58:06.164Z,49.62
2022-09-23T07:00:39.320Z,49.90
2022-09-23T07:03:11.915Z,49.70
2022-09-23T07:05:46.064Z,49.58
2022-09-23T07:08:19.001Z,49.69
2022-09-23T07:10:55.273Z,49.45
2022-09-23T07:13:29.499Z,49.42
2022-09-23T07:16:03.693Z,49.43
2022-09-23T07:18:37.730Z,49.32
2022-09-23T07:21:16.388Z,48.93
2022-09-23T07:23:51.972Z,49.00
2022-09-23T07:26:26.335Z,49.88
2022-09-23T07:29:05.200Z,49.40
2022-09-23T07:31:40.182Z,49.37
2022-09-23T07:34:13.038Z,49.45
2022-09-23T07:36:49.758Z,49.32
2022-09-23T07:39:22.728Z,49.05
2022-09-23T07:41:56.824Z,48.94
2022-09-23T07:44:31.631Z,48.83
2022-09-23T07:47:05.296Z,49.45
2022-09-23T07:49:38.604Z,49.32
2022-09-23T07:52:12.966Z,49.67
2022-09-23T07:54:48.034Z,49.34
2022-09-23T07:57:20.982Z,49.24
2022-09-23T07:59:53.706Z,49.54
2022-09-23T08:02:26.536Z,50.37
2022-09-23T08:04:59.246Z,49.86
2022-09-23T08:07:34.401Z,49.52
2022-09-23T08:10:08.387Z,48.69
2022-09-23T08:12:41.450Z,49.72
2022-09-23T08:15:14.668Z,49.80
2022-09-23T08:17:48.000Z,50.09
2022-09-23T08:20:34.636Z,50.13
2022-09-23T08:23:09.096Z,50.18
2022-09-23T08:25:44.634Z,50.41
2022-09-23T08:28:19.180Z,49.98
2022-09-23T08:30:52.092Z,49.77
2022-09-23T08:33:25.437Z,50.27
2022-09-23T08:36:01.331Z,49.57
2022-09-23T08:38:35.752Z,49.83
2022-09-23T08:41:17.614Z,49.40
2022-09-23T08:43:54.326Z,50.19
2022-09-23T08:46:33.163Z,49.98
2022-09-23T08:49:07.699Z,50.22
2022-09-23T08:51:46.235Z,49.73
2022-09-23T08:54:20.526Z,49.79
2022-09-23T08:56:55.340Z,49.81
2022-09-23T08:59:38.992Z,49.83
2022-09-23T09:02:19.019Z,49.65
2022-09-23T09:04:55.756Z,49.78
2022-09-23T09:07:37.069Z,48.97
2022-09-23T09:10:18.537Z,49.78
2022-09-23T09:12:55.428Z,48.51
2022-09-23T09:15:29.593Z,49.05
2022-09-23T09:18:07.649Z,49.19
2022-09-23T09:20:42.889Z,48.51
2022-09-23T09:23:22.782Z,48.70
2022-09-23T09:26:00.019Z,49.18
2022-09-23T09:28:40.125Z,49.15
2022-09-23T09:31:24.166Z,48.79
2022-09-23T09:34:03.862Z,48.74
2022-09-23T09:36:43.610Z,48.58
2022-09-23T09:39:17.264Z,48.48
2022-09-23T09:41:52.851Z,48.60
2022-09-23T09:44:31.633Z,48.60
2022-09-23T09:47:17.814Z,49.02
2022-09-23T09:50:00.679Z,48.41
2022-09-23T09:52:33.400Z,49.12
2022-09-23T09:55:25.416Z,48.02
2022-09-23T09:58:04.143Z,48.79
2022-09-23T10:00:42.733Z,48.29
2022-09-23T10:03:26.736Z,48.44
2022-09-23T10:06:00.100Z,48.81
2022-09-23T10:08:35.210Z,48.64
2022-09-23T10:11:16.149Z,48.13
2022-09-23T10:14:06.681Z,48.51
2022-09-23T10:16:40.138Z,48.35
2022-09-23T10:19:18.086Z,48.30
2022-09-23T10:21:59.859Z,47.67
2022-09-23T10:24:37.597Z,48.67
2022-09-23T10:27:12.282Z,48.24
2022-09-23T10:29:52.318Z,48.51
2022-09-23T10:32:28.976Z,48.28
2022-09-23T10:35:14.536Z,47.78
2022-09-23T10:37:50.541Z,47.33
2022-09-23T10:40:48.309Z,47.40
2022-09-23T10:43:45.760Z,47.30
2022-09-23T10:46:41.498Z,48.09
2022-09-23T10:49:34.756Z,47.44
2022-09-23T10:52:20.516Z,47.35
2022-09-23T10:55:05.140Z,47.71
2022-09-23T10:57:53.061Z,46.51
2022-09-23T11:00:37.823Z,48.15
2022-09-23T11:03:34.803Z,47.31
2022-09-23T11:06:19.989Z,48.24
2022-09-23T11:09:10.822Z,47.92
2022-09-23T11:11:54.977Z,47.31
2022-09-23T11:14:46.342Z,47.95
2022-09-23T11:17:33.418Z,45.83
2022-09-23T11:20:40.982Z,45.47
2022-09-23T11:23:38.765Z,45.04
2022-09-23T11:26:29.115Z,45.93
2022-09-23T11:29:33.805Z,46.32
2022-09-23T11:32:27.756Z,46.38
2022-09-23T11:35:12.786Z,45.12
2022-09-23T11:37:49.999Z,46.84
2022-09-23T11:40:30.246Z,44.59
2022-09-23T11:43:08.189Z,44.41
2022-09-23T11:45:46.362Z,45.35
2022-09-23T11:48:25.957Z,44.55
2022-09-23T11:51:02.665Z,45.81
2022-09-23T11:53:46.791Z,45.43
2022-09-23T11:56:34.523Z,44.46
2022-09-23T11:59:16.439Z,43.59
2022-09-23T12:02:20.654Z,44.20
2022-09-23T12:05:06.761Z,44.21
2022-09-23T12:07:51.513Z,43.12
2022-09-23T12:10:37.285Z,43.38
2022-09-23T12:13:19.097Z,44.46
2022-09-23T12:16:05.376Z,42.66
2022-09-23T12:18:49.030Z,44.44
2022-09-23T12:21:51.804Z,42.21
2022-09-23T12:24:46.565Z,43.90
2022-09-23T12:27:30.163Z,44.18
2022-09-23T12:30:12.783Z,42.78
2022-09-23T12:32:45.771Z,42.91
2022-09-23T12:35:23.361Z,42.74
2022-09-23T12:37:56.193Z,43.07
2022-09-23T12:40:34.098Z,42.69
2022-09-23T12:43:17.662Z,43.55
2022-09-23T12:45:50.901Z,44.91
2022-09-23T12:48:43.622Z,43.23
2022-09-23T12:51:21.778Z,43.59
2022-09-23T12:54:22.219Z,43.08
2022-09-23T12:57:06.845Z,44.78
2022-09-23T13:00:09.650Z,44.47
2022-09-23T13:02:44.423Z,44.72
2022-09-23T13:05:39.850Z,44.37
2022-09-23T13:08:18.852Z,43.80
2022-09-23T13:10:57.254Z,43.72
2022-09-23T13:13:34.340Z,43.76
2022-09-23T13:16:22.847Z,43.51
2022-09-23T13:18:57.089Z,43.42
2022-09-23T13:22:08.863Z,43.29
2022-09-23T13:24:46.801Z,43.53
2022-09-23T13:27:27.862Z,43.65
2022-09-23T13:30:03.715Z,43.36
2022-09-23T13:32:41.735Z,44.11
2022-09-23T13:35:19.640Z,44.18
2022-09-23T13:37:52.691Z,44.19
2022-09-23T13:40:27.833Z,44.52
2022-09-23T13:43:04.095Z,43.73
2022-09-23T13:45:41.365Z,44.68
2022-09-23T13:48:16.898Z,44.32
2022-09-23T13:50:51.173Z,45.12
2022-09-23T13:53:28.616Z,44.14
2022-09-23T13:56:06.425Z,44.57
2022-09-23T13:58:39.690Z,44.19
2022-09-23T14:01:24.049Z,44.33
2022-09-23T14:03:58.233Z,44.61
2022-09-23T14:06:31.962Z,44.23
2022-09-23T14:09:04.918Z,44.75
2022-09-23T14:11:37.453Z,44.58
2022-09-23T14:14:15.646Z,45.30
2022-09-23T14:16:51.314Z,45.09
2022-09-23T14:19:26.946Z,44.73
2022-09-23T14:22:00.478Z,45.15
2022-09-23T14:24:34.999Z,44.97
2022-09-23T14:27:15.962Z,45.18
2022-09-23T14:29:50.779Z,45.02
2022-09-23T14:32:27.595Z,45.39
2022-09-23T14:35:17.566Z,45.51
2022-09-23T14:38:10.810Z,45.81
2022-09-23T14:40:52.878Z,45.81
2022-09-23T14:43:29.168Z,45.90
2022-09-23T14:46:01.992Z,45.97
2022-09-23T14:48:36.786Z,46.10
2022-09-23T14:51:16.230Z,45.75
2022-09-23T14:53:51.369Z,45.80
2022-09-23T14:56:25.335Z,45.85
2022-09-23T14:58:59.814Z,46.61
2022-09-23T15:01:38.796Z,47.26
2022-09-23T15:04:18.266Z,46.69
2022-09-23T15:06:55.695Z,47.49
2022-09-23T15:09:31.545Z,47.52
2022-09-23T15:12:08.076Z,47.41
2022-09-23T15:14:46.354Z,48.41
2022-09-23T15:17:32.882Z,48.76
2022-09-23T15:20:09.822Z,49.42
2022-09-23T15:22:48.477Z,52.28
2022-09-23T15:25:25.754Z,50.82
2022-09-23T15:28:02.432Z,50.42
2022-09-23T15:30:37.389Z,49.77
2022-09-23T15:33:13.342Z,49.65
2022-09-23T15:35:48.535Z,50.13
2022-09-23T15:38:23.794Z,51.29
2022-09-23T15:40:56.860Z,50.20
2022-09-23T15:43:31.575Z,49.81
2022-09-23T15:46:32.352Z,49.70
2022-09-23T15:49:10.225Z,51.83
2022-09-23T15:51:43.722Z,50.02
2022-09-23T15:54:17.831Z,51.43
2022-09-23T15:56:50.632Z,52.04
2022-09-23T15:59:23.883Z,52.46
2022-09-23T16:01:58.265Z,52.24
2022-09-23T16:04:31.474Z,53.09
2022-09-23T16:07:05.577Z,52.72
2022-09-23T16:09:39.685Z,53.47
2022-09-23T16:12:13.000Z,51.56
2022-09-23T16:14:45.849Z,51.13
2022-09-23T16:17:18.630Z,54.44
2022-09-23T16:19:51.725Z,50.54
2022-09-23T16:22:24.519Z,52.93
2022-09-23T16:24:58.671Z,51.18
2022-09-23T16:27:31.398Z,50.93
2022-09-23T16:30:04.917Z,53.19
2022-09-23T16:32:38.215Z,54.39
2022-09-23T16:35:11.199Z,51.86
2022-09-23T16:37:47.079Z,52.55
2022-09-23T16:40:24.188Z,52.00
2022-09-23T16:42:58.409Z,51.75
2022-09-23T16:45:31.465Z,52.72
2022-09-23T16:48:06.201Z,55.51
2022-09-23T16:50:39.510Z,51.53
2022-09-23T16:53:12.156Z,51.98
2022-09-23T16:55:46.301Z,52.76
2022-09-23T16:58:18.989Z,51.51
2022-09-23T17:01:15.704Z,51.38
2022-09-23T17:03:48.539Z,50.30
2022-09-23T17:06:23.182Z,51.25
2022-09-23T17:08:56.396Z,50.90
2022-09-23T17:11:33.959Z,50.88
2022-09-23T17:14:07.412Z,51.76
2022-09-23T17:16:40.264Z,55.78
2022-09-23T17:19:13.335Z,53.35
2022-09-23T17:21:46.496Z,51.65
2022-09-23T17:24:19.293Z,53.46
2022-09-23T17:26:53.654Z,56.20
2022-09-23T17:29:29.108Z,53.27
2022-09-23T17:32:02.540Z,51.80
2022-09-23T17:34:35.501Z,52.83
2022-09-23T17:37:08.366Z,53.08
2022-09-23T17:39:42.382Z,52.61
2022-09-23T17:42:19.044Z,52.76
2022-09-23T17:44:51.910Z,52.59
2022-09-23T17:47:24.839Z,56.04
2022-09-23T17:49:58.746Z,52.33
2022-09-23T17:52:31.656Z,54.83
2022-09-23T17:55:04.794Z,52.88
2022-09-23T17:57:38.948Z,52.63
2022-09-23T18:00:13.131Z,52.32
2022-09-23T18:02:45.935Z,52.74
2022-09-23T18:05:19.053Z,53.82
2022-09-23T18:07:52.236Z,55.30
2022-09-23T18:10:24.962Z,53.47
2022-09-23T18:12:59.021Z,57.29
2022-09-23T18:15:31.820Z,54.21
2022-09-23T18:18:05.273Z,55.81
2022-09-23T18:20:38.011Z,53.72
2022-09-23T18:23:12.887Z,54.89
2022-09-23T18:25:45.776Z,56.09
2022-09-23T18:28:21.944Z,55.03
2022-09-23T18:30:58.466Z,56.60
2022-09-23T18:33:37.889Z,54.86
2022-09-23T18:36:13.851Z,55.35
2022-09-23T18:38:51.538Z,56.09
2022-09-23T18:41:37.366Z,56.14
2022-09-23T18:44:19.830Z,53.79
2022-09-23T18:47:04.018Z,57.52
2022-09-23T18:50:13.181Z,53.54
2022-09-23T18:52:53.453Z,53.53
2022-09-23T18:55:34.482Z,53.54
2022-09-23T18:58:15.958Z,53.30
2022-09-23T19:01:09.918Z,53.68
2022-09-23T19:03:47.110Z,53.82
2022-09-23T19:06:22.604Z,53.92
2022-09-23T19:08:57.737Z,53.97
2022-09-23T19:11:54.190Z,53.73
2022-09-23T19:14:30.254Z,53.74
2022-09-23T19:17:13.359Z,53.66
2022-09-23T19:20:09.928Z,53.85
2022-09-23T19:23:10.486Z,54.53
2022-09-23T19:25:46.545Z,54.16
2022-09-23T19:28:28.940Z,53.72
2022-09-23T19:31:43.228Z,53.45
2022-09-23T19:35:07.358Z,53.36
2022-09-23T19:37:49.123Z,53.69
2022-09-23T19:40:25.853Z,53.29
2022-09-23T19:43:06.480Z,54.17
2022-09-23T19:45:44.748Z,53.44
2022-09-23T19:48:19.605Z,53.48
2022-09-23T19:51:09.550Z,53.70
2022-09-23T19:53:45.865Z,53.94
2022-09-23T19:56:22.903Z,54.35
2022-09-23T19:59:18.449Z,53.97
2022-09-23T20:01:53.585Z,53.88
2022-09-23T20:04:33.724Z,54.22
2022-09-23T20:07:08.979Z,53.73
2022-09-23T20:09:41.893Z,53.85
2022-09-23T20:12:18.032Z,53.59
2022-09-23T20:14:54.660Z,53.90
2022-09-23T20:17:28.543Z,53.90
2022-09-23T20:20:04.634Z,53.82
2022-09-23T20:22:43.911Z,54.13
2022-09-23T20:25:17.641Z,53.92
2022-09-23T20:27:53.826Z,53.85
2022-09-23T20:30:29.629Z,54.03
2022-09-23T20:33:06.618Z,54.39
2022-09-23T20:36:09.658Z,53.90
2022-09-23T20:38:43.749Z,54.17
2022-09-23T20:41:17.229Z,53.94
2022-09-23T20:43:53.964Z,54.00
2022-09-23T20:46:30.920Z,53.81
2022-09-23T20:49:09.285Z,53.88
2022-09-23T20:51:43.136Z,53.83
2022-09-23T20:54:18.958Z,53.94
2022-09-23T20:57:18.278Z,54.18
2022-09-23T20:59:51.828Z,54.18
2022-09-23T21:02:25.451Z,53.93
2022-09-23T21:05:02.709Z,54.08
2022-09-23T21:07:35.876Z,54.42
2022-09-23T21:10:10.553Z,54.45
2022-09-23T21:12:45.953Z,54.32
2022-09-23T21:15:18.780Z,54.31
2022-09-23T21:17:51.538Z,54.13
2022-09-23T21:20:25.107Z,54.41
2022-09-23T21:23:01.646Z,54.70
2022-09-23T21:25:37.578Z,54.45
2022-09-23T21:28:10.689Z,54.73
2022-09-23T21:30:43.300Z,54.59
2022-09-23T21:33:18.458Z,54.63
2022-09-23T21:35:55.212Z,54.68
2022-09-23T21:38:29.645Z,54.56
2022-09-23T21:41:06.257Z,54.59
2022-09-23T21:43:41.580Z,54.51
2022-09-23T21:46:17.441Z,54.72
2022-09-23T21:48:53.766Z,54.88
2022-09-23T21:51:29.817Z,55.07
2022-09-23T21:54:03.009Z,55.07
2022-09-23T21:56:37.906Z,55.05
2022-09-23T21:59:11.003Z,54.90
2022-09-23T22:01:44.967Z,55.08
2022-09-23T22:04:22.996Z,54.77
2022-09-23T22:06:55.960Z,55.12
2022-09-23T22:09:28.959Z,55.05
2022-09-23T22:12:11.215Z,55.07
2022-09-23T22:14:47.924Z,54.79
2022-09-23T22:17:21.336Z,55.05
2022-09-23T22:19:54.303Z,55.64
2022-09-23T22:22:29.179Z,55.35
2022-09-23T22:25:02.239Z,54.80
2022-09-23T22:27:58.048Z,55.09
2022-09-23T22:30:48.582Z,54.82
2022-09-23T22:33:22.215Z,55.14
2022-09-23T22:36:04.980Z,55.25
2022-09-23T22:38:38.878Z,55.42
2022-09-23T22:41:13.846Z,55.21
2022-09-23T22:43:50.548Z,55.65
2022-09-23T22:46:24.569Z,55.32
2022-09-23T22:48:59.767Z,55.51
2022-09-23T22:51:33.760Z,55.31
2022-09-23T22:54:23.533Z,55.18
2022-09-23T22:56:56.409Z,55.50
2022-09-23T22:59:39.413Z,55.52
2022-09-23T23:02:12.182Z,55.65
2022-09-23T23:04:47.651Z,55.43
2022-09-23T23:07:21.729Z,55.76
2022-09-23T23:09:54.695Z,55.68
2022-09-23T23:12:28.754Z,55.61
2022-09-23T23:15:02.912Z,55.59
2022-09-23T23:17:35.599Z,55.60
2022-09-23T23:20:09.033Z,55.77
2022-09-23T23:22:41.736Z,55.47
2022-09-23T23:25:15.050Z,55.82
2022-09-23T23:27:48.046Z,55.99
2022-09-23T23:30:23.925Z,55.50
2022-09-23T23:32:58.573Z,55.79
2022-09-23T23:35:31.543Z,55.78
2022-09-23T23:38:06.426Z,55.75
2022-09-23T23:40:39.235Z,55.38
2022-09-23T23:43:12.809Z,55.41
2022-09-23T23:45:48.889Z,55.60
2022-09-23T23:48:22.012Z,55.60
2022-09-23T23:50:55.433Z,55.61
2022-09-23T23:53:32.363Z,55.55
2022-09-23T23:56:08.409Z,55.51
2022-09-23T23:58:41.290Z,55.55
